sensor_id;sensor_type;location;lat;lon;timestamp;pressure;altitude;pressure_sealevel;temperature;humidity
7986;BME280;4038;42.612;23.066;2022-08-19T00:01:28;92935.16;;;20.27;66.80
7986;BME280;4038;42.612;23.066;2022-08-19T00:03:56;92926.66;;;20.17;67.42
7986;BME280;4038;42.612;23.066;2022-08-19T00:06:21;92932.81;;;20.16;67.59
7986;BME280;4038;42.612;23.066;2022-08-19T00:08:46;92923.06;;;20.40;66.56
7986;BME280;4038;42.612;23.066;2022-08-19T00:11:13;92928.34;;;20.60;65.91
7986;BME280;4038;42.612;23.066;2022-08-19T00:13:39;92935.06;;;20.57;65.62
7986;BME280;4038;42.612;23.066;2022-08-19T00:16:05;92927.91;;;20.39;66.08
7986;BME280;4038;42.612;23.066;2022-08-19T00:18:31;92949.50;;;20.63;65.46
7986;BME280;4038;42.612;23.066;2022-08-19T00:20:57;92950.47;;;20.58;65.50
7986;BME280;4038;42.612;23.066;2022-08-19T00:23:23;92951.50;;;20.31;66.00
7986;BME280;4038;42.612;23.066;2022-08-19T00:25:48;92958.22;;;20.20;67.06
7986;BME280;4038;42.612;23.066;2022-08-19T00:28:13;92943.25;;;20.00;67.94
7986;BME280;4038;42.612;23.066;2022-08-19T00:30:39;92941.44;;;19.80;69.00
7986;BME280;4038;42.612;23.066;2022-08-19T00:33:06;92949.44;;;19.68;69.54
7986;BME280;4038;42.612;23.066;2022-08-19T00:35:32;92949.09;;;19.64;69.85
7986;BME280;4038;42.612;23.066;2022-08-19T00:37:58;92938.50;;;19.55;70.40
7986;BME280;4038;42.612;23.066;2022-08-19T00:40:25;92941.47;;;19.42;71.17
7986;BME280;4038;42.612;23.066;2022-08-19T00:42:50;92937.94;;;19.34;71.43
7986;BME280;4038;42.612;23.066;2022-08-19T00:45:25;92945.53;;;19.33;71.76
7986;BME280;4038;42.612;23.066;2022-08-19T00:47:50;92929.81;;;19.13;72.36
7986;BME280;4038;42.612;23.066;2022-08-19T00:50:17;92928.50;;;19.29;71.84
7986;BME280;4038;42.612;23.066;2022-08-19T00:52:47;92930.31;;;19.80;70.14
7986;BME280;4038;42.612;23.066;2022-08-19T00:55:19;92936.66;;;19.65;69.97
7986;BME280;4038;42.612;23.066;2022-08-19T00:57:53;92917.75;;;19.48;70.27
7986;BME280;4038;42.612;23.066;2022-08-19T01:00:21;92923.13;;;19.46;70.35
7986;BME280;4038;42.612;23.066;2022-08-19T01:02:47;92924.75;;;19.87;68.27
7986;BME280;4038;42.612;23.066;2022-08-19T01:05:19;92927.56;;;20.27;65.87
7986;BME280;4038;42.612;23.066;2022-08-19T01:07:47;92927.13;;;20.46;65.96
7986;BME280;4038;42.612;23.066;2022-08-19T01:10:16;92926.44;;;20.38;66.03
7986;BME280;4038;42.612;23.066;2022-08-19T01:12:44;92927.66;;;19.97;67.67
7986;BME280;4038;42.612;23.066;2022-08-19T01:15:12;92915.50;;;19.70;68.49
7986;BME280;4038;42.612;23.066;2022-08-19T01:17:40;92931.00;;;19.96;68.72
7986;BME280;4038;42.612;23.066;2022-08-19T01:20:08;92934.44;;;19.56;69.40
7986;BME280;4038;42.612;23.066;2022-08-19T01:22:48;92925.44;;;19.96;68.04
7986;BME280;4038;42.612;23.066;2022-08-19T01:25:16;92928.81;;;19.94;67.80
7986;BME280;4038;42.612;23.066;2022-08-19T01:27:45;92926.88;;;20.12;67.35
7986;BME280;4038;42.612;23.066;2022-08-19T01:30:22;92932.19;;;19.77;68.75
7986;BME280;4038;42.612;23.066;2022-08-19T01:32:49;92922.56;;;19.63;69.14
7986;BME280;4038;42.612;23.066;2022-08-19T01:35:15;92928.56;;;20.07;67.77
7986;BME280;4038;42.612;23.066;2022-08-19T01:37:48;92929.03;;;20.28;67.07
7986;BME280;4038;42.612;23.066;2022-08-19T01:40:16;92927.63;;;20.60;65.82
7986;BME280;4038;42.612;23.066;2022-08-19T01:42:42;92923.03;;;20.47;66.15
7986;BME280;4038;42.612;23.066;2022-08-19T01:45:08;92921.81;;;20.33;66.73
7986;BME280;4038;42.612;23.066;2022-08-19T01:47:37;92922.28;;;19.99;67.58
7986;BME280;4038;42.612;23.066;2022-08-19T01:50:05;92928.66;;;19.69;68.61
7986;BME280;4038;42.612;23.066;2022-08-19T01:52:31;92932.38;;;19.26;70.47
7986;BME280;4038;42.612;23.066;2022-08-19T01:54:56;92948.53;;;19.66;69.48
7986;BME280;4038;42.612;23.066;2022-08-19T01:57:22;92934.81;;;19.30;70.56
7986;BME280;4038;42.612;23.066;2022-08-19T01:59:48;92933.13;;;19.27;70.25
7986;BME280;4038;42.612;23.066;2022-08-19T02:02:13;92935.84;;;18.73;72.51
7986;BME280;4038;42.612;23.066;2022-08-19T02:04:39;92923.94;;;18.43;74.18
7986;BME280;4038;42.612;23.066;2022-08-19T02:07:05;92923.00;;;18.48;74.45
7986;BME280;4038;42.612;23.066;2022-08-19T02:09:31;92915.69;;;18.73;73.19
7986;BME280;4038;42.612;23.066;2022-08-19T02:11:57;92920.34;;;19.01;72.04
7986;BME280;4038;42.612;23.066;2022-08-19T02:14:23;92928.28;;;18.89;72.45
7986;BME280;4038;42.612;23.066;2022-08-19T02:16:48;92935.16;;;18.88;72.74
7986;BME280;4038;42.612;23.066;2022-08-19T02:19:14;92940.19;;;19.13;71.78
7986;BME280;4038;42.612;23.066;2022-08-19T02:21:39;92944.78;;;18.95;72.67
7986;BME280;4038;42.612;23.066;2022-08-19T02:24:05;92936.63;;;18.89;72.71
7986;BME280;4038;42.612;23.066;2022-08-19T02:26:32;92931.00;;;18.51;74.19
7986;BME280;4038;42.612;23.066;2022-08-19T02:28:57;92932.34;;;18.58;74.57
7986;BME280;4038;42.612;23.066;2022-08-19T02:31:24;92937.56;;;18.99;73.39
7986;BME280;4038;42.612;23.066;2022-08-19T02:33:50;92938.31;;;19.00;73.38
7986;BME280;4038;42.612;23.066;2022-08-19T02:36:17;92945.53;;;19.18;72.84
7986;BME280;4038;42.612;23.066;2022-08-19T02:38:43;92935.56;;;19.23;72.20
7986;BME280;4038;42.612;23.066;2022-08-19T02:41:19;92934.59;;;18.82;73.34
7986;BME280;4038;42.612;23.066;2022-08-19T02:43:45;92929.25;;;18.92;72.90
7986;BME280;4038;42.612;23.066;2022-08-19T02:46:22;92922.03;;;18.38;74.39
7986;BME280;4038;42.612;23.066;2022-08-19T02:48:52;92924.09;;;18.45;74.51
7986;BME280;4038;42.612;23.066;2022-08-19T02:51:24;92930.25;;;18.51;74.14
7986;BME280;4038;42.612;23.066;2022-08-19T02:53:51;92922.19;;;18.83;73.24
7986;BME280;4038;42.612;23.066;2022-08-19T02:56:16;92924.97;;;18.98;72.53
7986;BME280;4038;42.612;23.066;2022-08-19T02:58:42;92918.50;;;19.03;72.02
7986;BME280;4038;42.612;23.066;2022-08-19T03:01:09;92921.47;;;19.05;71.83
7986;BME280;4038;42.612;23.066;2022-08-19T03:03:35;92932.94;;;19.25;71.37
7986;BME280;4038;42.612;23.066;2022-08-19T03:06:11;92932.94;;;19.02;72.06
7986;BME280;4038;42.612;23.066;2022-08-19T03:08:39;92925.16;;;18.93;72.44
7986;BME280;4038;42.612;23.066;2022-08-19T03:11:05;92937.19;;;19.10;71.66
7986;BME280;4038;42.612;23.066;2022-08-19T03:13:31;92930.72;;;19.00;71.92
7986;BME280;4038;42.612;23.066;2022-08-19T03:15:56;92935.13;;;18.73;72.91
7986;BME280;4038;42.612;23.066;2022-08-19T03:18:22;92934.75;;;18.69;73.19
7986;BME280;4038;42.612;23.066;2022-08-19T03:20:50;92935.75;;;18.36;74.59
7986;BME280;4038;42.612;23.066;2022-08-19T03:23:18;92935.84;;;18.58;74.15
7986;BME280;4038;42.612;23.066;2022-08-19T03:25:46;92929.84;;;18.47;74.13
7986;BME280;4038;42.612;23.066;2022-08-19T03:28:13;92934.03;;;18.76;73.33
7986;BME280;4038;42.612;23.066;2022-08-19T03:30:41;92934.84;;;18.41;74.41
7986;BME280;4038;42.612;23.066;2022-08-19T03:33:10;92940.19;;;18.39;74.57
7986;BME280;4038;42.612;23.066;2022-08-19T03:35:37;92945.44;;;18.50;74.15
7986;BME280;4038;42.612;23.066;2022-08-19T03:38:04;92948.84;;;18.71;73.33
7986;BME280;4038;42.612;23.066;2022-08-19T03:40:31;92945.06;;;18.53;74.67
7986;BME280;4038;42.612;23.066;2022-08-19T03:42:57;92952.47;;;18.51;74.47
7986;BME280;4038;42.612;23.066;2022-08-19T03:45:23;92958.47;;;18.70;73.68
7986;BME280;4038;42.612;23.066;2022-08-19T03:47:48;92951.06;;;18.73;73.68
7986;BME280;4038;42.612;23.066;2022-08-19T03:50:14;92955.72;;;18.85;73.09
7986;BME280;4038;42.612;23.066;2022-08-19T03:52:40;92954.06;;;18.97;72.69
7986;BME280;4038;42.612;23.066;2022-08-19T03:55:06;92952.78;;;19.06;72.23
7986;BME280;4038;42.612;23.066;2022-08-19T03:57:33;92955.91;;;18.80;72.89
7986;BME280;4038;42.612;23.066;2022-08-19T04:00:00;92960.47;;;18.62;73.68
7986;BME280;4038;42.612;23.066;2022-08-19T04:02:26;92963.66;;;18.89;72.95
7986;BME280;4038;42.612;23.066;2022-08-19T04:04:53;92968.75;;;18.54;74.36
7986;BME280;4038;42.612;23.066;2022-08-19T04:07:19;92972.53;;;18.21;75.76
7986;BME280;4038;42.612;23.066;2022-08-19T04:09:47;92921.50;;;17.88;75.85
7986;BME280;4038;42.612;23.066;2022-08-19T04:12:13;92966.16;;;18.05;76.48
7986;BME280;4038;42.612;23.066;2022-08-19T04:14:39;92977.13;;;18.18;76.08
7986;BME280;4038;42.612;23.066;2022-08-19T04:17:04;92981.25;;;18.32;75.68
7986;BME280;4038;42.612;23.066;2022-08-19T04:19:31;92985.31;;;18.31;76.20
7986;BME280;4038;42.612;23.066;2022-08-19T04:21:57;92981.22;;;18.25;76.02
7986;BME280;4038;42.612;23.066;2022-08-19T04:24:26;92973.81;;;18.20;76.43
7986;BME280;4038;42.612;23.066;2022-08-19T04:26:51;92996.44;;;18.31;76.29
7986;BME280;4038;42.612;23.066;2022-08-19T04:29:20;92981.66;;;18.44;75.64
7986;BME280;4038;42.612;23.066;2022-08-19T04:31:47;92990.41;;;18.48;74.58
7986;BME280;4038;42.612;23.066;2022-08-19T04:34:15;92990.09;;;18.59;74.08
7986;BME280;4038;42.612;23.066;2022-08-19T04:36:45;92983.81;;;18.74;73.64
7986;BME280;4038;42.612;23.066;2022-08-19T04:39:14;92982.91;;;18.71;73.87
7986;BME280;4038;42.612;23.066;2022-08-19T04:41:39;92979.41;;;18.71;73.24
7986;BME280;4038;42.612;23.066;2022-08-19T04:44:23;92982.53;;;18.75;73.94
7986;BME280;4038;42.612;23.066;2022-08-19T04:46:50;92987.03;;;18.93;73.11
7986;BME280;4038;42.612;23.066;2022-08-19T04:49:20;92976.06;;;18.88;73.47
7986;BME280;4038;42.612;23.066;2022-08-19T04:51:50;92984.63;;;18.97;73.63
7986;BME280;4038;42.612;23.066;2022-08-19T04:54:18;92985.91;;;18.96;73.55
7986;BME280;4038;42.612;23.066;2022-08-19T04:56:48;92983.19;;;19.42;71.96
7986;BME280;4038;42.612;23.066;2022-08-19T04:59:15;92986.34;;;19.54;71.62
7986;BME280;4038;42.612;23.066;2022-08-19T05:01:42;92989.09;;;19.46;71.85
7986;BME280;4038;42.612;23.066;2022-08-19T05:04:09;92992.81;;;19.41;72.53
7986;BME280;4038;42.612;23.066;2022-08-19T05:06:35;92989.69;;;19.60;71.41
7986;BME280;4038;42.612;23.066;2022-08-19T05:09:03;92983.38;;;19.74;71.53
7986;BME280;4038;42.612;23.066;2022-08-19T05:11:32;92984.94;;;20.23;69.65
7986;BME280;4038;42.612;23.066;2022-08-19T05:13:57;92989.94;;;20.24;69.43
7986;BME280;4038;42.612;23.066;2022-08-19T05:16:25;92989.50;;;20.51;68.89
7986;BME280;4038;42.612;23.066;2022-08-19T05:18:51;92995.44;;;20.47;68.62
7986;BME280;4038;42.612;23.066;2022-08-19T05:21:35;92996.16;;;20.55;67.90
7986;BME280;4038;42.612;23.066;2022-08-19T05:24:21;92999.13;;;20.57;68.10
7986;BME280;4038;42.612;23.066;2022-08-19T05:26:49;92998.00;;;20.60;67.98
7986;BME280;4038;42.612;23.066;2022-08-19T05:29:16;92997.78;;;21.06;67.23
7986;BME280;4038;42.612;23.066;2022-08-19T05:31:43;92996.16;;;21.28;66.01
7986;BME280;4038;42.612;23.066;2022-08-19T05:34:09;92985.09;;;21.45;65.08
7986;BME280;4038;42.612;23.066;2022-08-19T05:36:38;92993.84;;;21.41;64.78
7986;BME280;4038;42.612;23.066;2022-08-19T05:39:06;92992.06;;;21.78;64.31
7986;BME280;4038;42.612;23.066;2022-08-19T05:41:31;92996.50;;;22.24;63.26
7986;BME280;4038;42.612;23.066;2022-08-19T05:43:57;92991.69;;;22.68;61.05
7986;BME280;4038;42.612;23.066;2022-08-19T05:46:23;92989.34;;;23.45;57.90
7986;BME280;4038;42.612;23.066;2022-08-19T05:48:49;92992.56;;;25.01;53.69
7986;BME280;4038;42.612;23.066;2022-08-19T05:51:15;93001.78;;;25.42;52.40
7986;BME280;4038;42.612;23.066;2022-08-19T05:53:41;92993.06;;;26.10;51.28
7986;BME280;4038;42.612;23.066;2022-08-19T05:56:10;92992.38;;;26.85;49.22
7986;BME280;4038;42.612;23.066;2022-08-19T05:58:38;92995.69;;;28.17;44.78
7986;BME280;4038;42.612;23.066;2022-08-19T06:01:09;92992.34;;;28.92;41.86
7986;BME280;4038;42.612;23.066;2022-08-19T06:03:35;92994.59;;;29.97;40.16
7986;BME280;4038;42.612;23.066;2022-08-19T06:06:03;92989.78;;;30.27;39.12
7986;BME280;4038;42.612;23.066;2022-08-19T06:08:29;92996.00;;;29.71;41.28
7986;BME280;4038;42.612;23.066;2022-08-19T06:10:54;92992.28;;;29.94;39.88
7986;BME280;4038;42.612;23.066;2022-08-19T06:13:21;92993.78;;;30.22;38.41
7986;BME280;4038;42.612;23.066;2022-08-19T06:15:48;92996.06;;;30.67;37.99
7986;BME280;4038;42.612;23.066;2022-08-19T06:18:14;93001.22;;;30.29;38.67
7986;BME280;4038;42.612;23.066;2022-08-19T06:20:41;92996.06;;;30.67;37.10
7986;BME280;4038;42.612;23.066;2022-08-19T06:23:07;92990.19;;;30.62;36.22
7986;BME280;4038;42.612;23.066;2022-08-19T06:25:33;92986.38;;;32.21;33.79
7986;BME280;4038;42.612;23.066;2022-08-19T06:27:58;92986.38;;;31.28;34.73
7986;BME280;4038;42.612;23.066;2022-08-19T06:30:24;92984.53;;;30.62;36.84
7986;BME280;4038;42.612;23.066;2022-08-19T06:32:49;92987.19;;;30.31;37.44
7986;BME280;4038;42.612;23.066;2022-08-19T06:35:15;92990.53;;;31.57;35.35
7986;BME280;4038;42.612;23.066;2022-08-19T06:37:40;92985.38;;;32.30;34.51
7986;BME280;4038;42.612;23.066;2022-08-19T06:40:07;92985.81;;;31.93;34.60
7986;BME280;4038;42.612;23.066;2022-08-19T06:42:34;92970.75;;;31.43;35.54
7986;BME280;4038;42.612;23.066;2022-08-19T06:45:00;92985.38;;;32.79;34.05
7986;BME280;4038;42.612;23.066;2022-08-19T06:47:28;92987.56;;;32.80;33.59
7986;BME280;4038;42.612;23.066;2022-08-19T06:49:55;92987.75;;;32.84;33.33
7986;BME280;4038;42.612;23.066;2022-08-19T06:52:25;92989.91;;;33.37;31.86
7986;BME280;4038;42.612;23.066;2022-08-19T06:54:50;92988.66;;;33.60;31.60
7986;BME280;4038;42.612;23.066;2022-08-19T06:57:16;92978.56;;;34.91;30.49
7986;BME280;4038;42.612;23.066;2022-08-19T06:59:41;92994.41;;;33.97;31.44
7986;BME280;4038;42.612;23.066;2022-08-19T07:02:07;92991.75;;;34.41;30.31
7986;BME280;4038;42.612;23.066;2022-08-19T07:04:34;92998.44;;;34.89;29.24
7986;BME280;4038;42.612;23.066;2022-08-19T07:07:04;92995.94;;;35.21;28.97
7986;BME280;4038;42.612;23.066;2022-08-19T07:09:35;92987.78;;;33.73;31.29
7986;BME280;4038;42.612;23.066;2022-08-19T07:12:03;93005.47;;;34.46;30.58
7986;BME280;4038;42.612;23.066;2022-08-19T07:14:29;92999.47;;;34.38;30.75
7986;BME280;4038;42.612;23.066;2022-08-19T07:16:56;93000.16;;;34.98;29.71
7986;BME280;4038;42.612;23.066;2022-08-19T07:19:23;92990.25;;;35.88;29.41
7986;BME280;4038;42.612;23.066;2022-08-19T07:21:50;92991.25;;;35.08;30.83
7986;BME280;4038;42.612;23.066;2022-08-19T07:24:18;92988.16;;;35.21;29.52
7986;BME280;4038;42.612;23.066;2022-08-19T07:26:44;92980.06;;;36.29;28.49
7986;BME280;4038;42.612;23.066;2022-08-19T07:29:11;92979.81;;;35.97;28.59
7986;BME280;4038;42.612;23.066;2022-08-19T07:31:37;92985.34;;;36.15;28.24
7986;BME280;4038;42.612;23.066;2022-08-19T07:34:05;92980.78;;;34.73;29.26
7986;BME280;4038;42.612;23.066;2022-08-19T07:36:39;92989.25;;;35.56;28.91
7986;BME280;4038;42.612;23.066;2022-08-19T07:39:12;92971.63;;;37.12;26.95
7986;BME280;4038;42.612;23.066;2022-08-19T07:41:38;92981.69;;;37.43;26.52
7986;BME280;4038;42.612;23.066;2022-08-19T07:44:05;92982.97;;;37.66;25.55
7986;BME280;4038;42.612;23.066;2022-08-19T07:46:34;92981.53;;;36.30;27.63
7986;BME280;4038;42.612;23.066;2022-08-19T07:49:00;92975.22;;;36.59;27.30
7986;BME280;4038;42.612;23.066;2022-08-19T07:51:27;92988.56;;;37.92;26.02
7986;BME280;4038;42.612;23.066;2022-08-19T07:53:52;92982.19;;;38.27;25.05
7986;BME280;4038;42.612;23.066;2022-08-19T07:56:19;92983.75;;;38.01;24.84
7986;BME280;4038;42.612;23.066;2022-08-19T07:58:46;92989.91;;;36.73;26.35
7986;BME280;4038;42.612;23.066;2022-08-19T08:01:16;92977.03;;;36.74;27.56
7986;BME280;4038;42.612;23.066;2022-08-19T08:03:41;92978.84;;;38.05;25.51
7986;BME280;4038;42.612;23.066;2022-08-19T08:06:25;92976.34;;;39.33;23.79
7986;BME280;4038;42.612;23.066;2022-08-19T08:09:10;92973.22;;;38.79;24.22
7986;BME280;4038;42.612;23.066;2022-08-19T08:11:42;92975.13;;;37.67;25.08
7986;BME280;4038;42.612;23.066;2022-08-19T08:14:14;92971.78;;;36.65;26.26
7986;BME280;4038;42.612;23.066;2022-08-19T08:16:40;92971.88;;;36.95;26.47
7986;BME280;4038;42.612;23.066;2022-08-19T08:19:07;92961.41;;;36.26;27.04
7986;BME280;4038;42.612;23.066;2022-08-19T08:21:33;92972.97;;;35.82;28.08
7986;BME280;4038;42.612;23.066;2022-08-19T08:23:59;92962.16;;;36.03;28.01
7986;BME280;4038;42.612;23.066;2022-08-19T08:26:25;92959.88;;;36.72;27.36
7986;BME280;4038;42.612;23.066;2022-08-19T08:28:52;92952.56;;;35.92;27.44
7986;BME280;4038;42.612;23.066;2022-08-19T08:31:18;92959.00;;;36.94;26.87
7986;BME280;4038;42.612;23.066;2022-08-19T08:33:44;92957.13;;;37.62;26.96
7986;BME280;4038;42.612;23.066;2022-08-19T08:36:11;92950.66;;;38.25;25.62
7986;BME280;4038;42.612;23.066;2022-08-19T08:38:40;92952.59;;;37.83;25.15
7986;BME280;4038;42.612;23.066;2022-08-19T08:43:45;92955.19;;;38.37;24.92
7986;BME280;4038;42.612;23.066;2022-08-19T08:46:15;92954.72;;;38.86;24.08
7986;BME280;4038;42.612;23.066;2022-08-19T08:51:32;92941.53;;;37.67;24.51
7986;BME280;4038;42.612;23.066;2022-08-19T08:53:59;92946.78;;;38.47;23.47
7986;BME280;4038;42.612;23.066;2022-08-19T08:56:26;92951.13;;;39.70;22.88
7986;BME280;4038;42.612;23.066;2022-08-19T08:59:02;92944.22;;;39.41;23.18
7986;BME280;4038;42.612;23.066;2022-08-19T09:01:29;92941.34;;;39.41;23.11
7986;BME280;4038;42.612;23.066;2022-08-19T09:03:54;92936.47;;;38.67;22.94
7986;BME280;4038;42.612;23.066;2022-08-19T09:06:45;92941.38;;;38.63;22.98
7986;BME280;4038;42.612;23.066;2022-08-19T09:09:29;92935.59;;;39.41;22.93
7986;BME280;4038;42.612;23.066;2022-08-19T09:12:09;92936.75;;;37.78;23.59
7986;BME280;4038;42.612;23.066;2022-08-19T09:17:12;92926.31;;;41.09;20.79
7986;BME280;4038;42.612;23.066;2022-08-19T09:22:40;92919.22;;;41.18;20.44
7986;BME280;4038;42.612;23.066;2022-08-19T09:25:10;92926.31;;;40.45;21.09
7986;BME280;4038;42.612;23.066;2022-08-19T09:27:37;92903.03;;;40.20;20.73
7986;BME280;4038;42.612;23.066;2022-08-19T09:30:05;92912.91;;;39.57;22.02
7986;BME280;4038;42.612;23.066;2022-08-19T09:32:31;92922.56;;;40.30;21.06
7986;BME280;4038;42.612;23.066;2022-08-19T09:34:58;92907.88;;;41.39;19.89
7986;BME280;4038;42.612;23.066;2022-08-19T09:37:26;92893.09;;;40.96;19.94
7986;BME280;4038;42.612;23.066;2022-08-19T09:39:51;92909.88;;;40.51;20.37
7986;BME280;4038;42.612;23.066;2022-08-19T09:42:18;92902.19;;;40.10;20.66
7986;BME280;4038;42.612;23.066;2022-08-19T09:44:44;92908.38;;;40.46;20.15
7986;BME280;4038;42.612;23.066;2022-08-19T09:47:12;92913.09;;;40.19;20.37
7986;BME280;4038;42.612;23.066;2022-08-19T09:49:38;92900.47;;;40.45;19.89
7986;BME280;4038;42.612;23.066;2022-08-19T09:52:05;92886.28;;;40.01;19.92
7986;BME280;4038;42.612;23.066;2022-08-19T09:54:30;92893.88;;;41.03;19.55
7986;BME280;4038;42.612;23.066;2022-08-19T09:56:59;92901.31;;;39.99;20.60
7986;BME280;4038;42.612;23.066;2022-08-19T09:59:28;92892.16;;;40.11;20.10
7986;BME280;4038;42.612;23.066;2022-08-19T10:01:53;92884.63;;;39.84;19.54
7986;BME280;4038;42.612;23.066;2022-08-19T10:04:19;92881.72;;;42.11;17.78
7986;BME280;4038;42.612;23.066;2022-08-19T10:06:48;92877.06;;;40.73;19.03
7986;BME280;4038;42.612;23.066;2022-08-19T10:09:16;92874.34;;;40.87;18.66
7986;BME280;4038;42.612;23.066;2022-08-19T10:11:44;92886.38;;;39.57;19.33
7986;BME280;4038;42.612;23.066;2022-08-19T10:14:15;92872.81;;;40.76;19.37
7986;BME280;4038;42.612;23.066;2022-08-19T10:16:42;92872.81;;;40.76;19.11
7986;BME280;4038;42.612;23.066;2022-08-19T10:19:08;92865.78;;;40.95;19.17
7986;BME280;4038;42.612;23.066;2022-08-19T10:21:34;92873.66;;;41.85;18.16
7986;BME280;4038;42.612;23.066;2022-08-19T10:24:03;92879.06;;;41.37;18.64
7986;BME280;4038;42.612;23.066;2022-08-19T10:26:39;92872.84;;;39.63;19.88
7986;BME280;4038;42.612;23.066;2022-08-19T10:29:07;92861.81;;;40.56;19.57
7986;BME280;4038;42.612;23.066;2022-08-19T10:31:33;92869.28;;;40.19;18.94
7986;BME280;4038;42.612;23.066;2022-08-19T10:34:00;92868.78;;;42.14;18.15
7986;BME280;4038;42.612;23.066;2022-08-19T10:36:31;92867.63;;;43.27;17.35
7986;BME280;4038;42.612;23.066;2022-08-19T10:38:59;92854.97;;;41.88;18.29
7986;BME280;4038;42.612;23.066;2022-08-19T10:41:31;92853.50;;;40.88;19.39
7986;BME280;4038;42.612;23.066;2022-08-19T10:44:00;92860.03;;;39.72;19.66
7986;BME280;4038;42.612;23.066;2022-08-19T10:46:28;92850.53;;;40.12;19.82
7986;BME280;4038;42.612;23.066;2022-08-19T10:48:58;92848.22;;;40.65;19.43
7986;BME280;4038;42.612;23.066;2022-08-19T10:51:23;92848.00;;;41.15;18.75
7986;BME280;4038;42.612;23.066;2022-08-19T10:54:08;92851.03;;;40.54;18.93
7986;BME280;4038;42.612;23.066;2022-08-19T10:56:34;92857.00;;;40.14;20.19
7986;BME280;4038;42.612;23.066;2022-08-19T10:59:26;92848.34;;;40.73;19.11
7986;BME280;4038;42.612;23.066;2022-08-19T11:01:58;92840.75;;;40.35;18.97
7986;BME280;4038;42.612;23.066;2022-08-19T11:04:24;92850.09;;;42.25;17.62
7986;BME280;4038;42.612;23.066;2022-08-19T11:06:50;92844.31;;;42.13;17.10
7986;BME280;4038;42.612;23.066;2022-08-19T11:09:19;92839.06;;;41.71;17.94
7986;BME280;4038;42.612;23.066;2022-08-19T11:11:45;92841.88;;;41.61;17.67
7986;BME280;4038;42.612;23.066;2022-08-19T11:14:15;92840.22;;;41.31;18.09
7986;BME280;4038;42.612;23.066;2022-08-19T11:16:44;92832.16;;;42.41;16.96
7986;BME280;4038;42.612;23.066;2022-08-19T11:19:11;92821.78;;;41.79;18.05
7986;BME280;4038;42.612;23.066;2022-08-19T11:21:44;92832.66;;;41.89;17.68
7986;BME280;4038;42.612;23.066;2022-08-19T11:24:14;92832.06;;;41.02;17.85
7986;BME280;4038;42.612;23.066;2022-08-19T11:26:45;92833.41;;;40.20;18.40
7986;BME280;4038;42.612;23.066;2022-08-19T11:29:13;92830.16;;;41.32;18.37
7986;BME280;4038;42.612;23.066;2022-08-19T11:31:58;92827.97;;;41.29;18.07
7986;BME280;4038;42.612;23.066;2022-08-19T11:34:28;92821.75;;;40.70;18.78
7986;BME280;4038;42.612;23.066;2022-08-19T11:36:55;92817.66;;;40.98;17.47
7986;BME280;4038;42.612;23.066;2022-08-19T11:39:24;92818.34;;;41.99;17.07
7986;BME280;4038;42.612;23.066;2022-08-19T11:41:50;92811.47;;;41.38;18.36
7986;BME280;4038;42.612;23.066;2022-08-19T11:44:16;92805.50;;;41.05;17.79
7986;BME280;4038;42.612;23.066;2022-08-19T11:46:43;92803.59;;;41.40;17.15
7986;BME280;4038;42.612;23.066;2022-08-19T11:49:13;92806.81;;;42.03;16.98
7986;BME280;4038;42.612;23.066;2022-08-19T11:51:39;92800.88;;;41.62;17.17
7986;BME280;4038;42.612;23.066;2022-08-19T11:54:07;92801.31;;;41.20;17.67
7986;BME280;4038;42.612;23.066;2022-08-19T11:56:32;92797.25;;;39.99;18.46
7986;BME280;4038;42.612;23.066;2022-08-19T11:59:01;92795.19;;;40.78;17.68
7986;BME280;4038;42.612;23.066;2022-08-19T12:01:27;92788.47;;;40.51;18.44
7986;BME280;4038;42.612;23.066;2022-08-19T12:03:54;92778.25;;;41.14;17.47
7986;BME280;4038;42.612;23.066;2022-08-19T12:06:23;92771.34;;;41.58;17.50
7986;BME280;4038;42.612;23.066;2022-08-19T12:08:51;92777.91;;;40.72;18.67
7986;BME280;4038;42.612;23.066;2022-08-19T12:11:16;92782.13;;;40.65;19.06
7986;BME280;4038;42.612;23.066;2022-08-19T12:13:42;92770.03;;;40.02;18.80
7986;BME280;4038;42.612;23.066;2022-08-19T12:16:26;92776.59;;;39.52;19.46
7986;BME280;4038;42.612;23.066;2022-08-19T12:18:52;92775.81;;;38.99;20.52
7986;BME280;4038;42.612;23.066;2022-08-19T12:21:21;92769.28;;;38.93;19.62
7986;BME280;4038;42.612;23.066;2022-08-19T12:23:49;92775.75;;;38.11;21.72
7986;BME280;4038;42.612;23.066;2022-08-19T12:26:15;92758.31;;;37.27;21.88
7986;BME280;4038;42.612;23.066;2022-08-19T12:28:41;92764.34;;;38.55;20.40
7986;BME280;4038;42.612;23.066;2022-08-19T12:31:07;92760.84;;;39.03;20.22
7986;BME280;4038;42.612;23.066;2022-08-19T12:33:33;92767.06;;;38.91;21.14
7986;BME280;4038;42.612;23.066;2022-08-19T12:36:07;92771.13;;;39.22;19.43
7986;BME280;4038;42.612;23.066;2022-08-19T12:38:33;92764.13;;;38.43;20.60
7986;BME280;4038;42.612;23.066;2022-08-19T12:40:59;92764.13;;;38.43;21.30
7986;BME280;4038;42.612;23.066;2022-08-19T12:43:26;92757.97;;;39.03;20.38
7986;BME280;4038;42.612;23.066;2022-08-19T12:45:52;92757.16;;;38.98;20.29
7986;BME280;4038;42.612;23.066;2022-08-19T12:48:17;92760.22;;;39.11;20.91
7986;BME280;4038;42.612;23.066;2022-08-19T12:50:44;92748.88;;;39.21;20.57
7986;BME280;4038;42.612;23.066;2022-08-19T12:53:11;92750.59;;;38.46;21.25
7986;BME280;4038;42.612;23.066;2022-08-19T12:55:36;92757.72;;;38.05;21.10
7986;BME280;4038;42.612;23.066;2022-08-19T12:58:02;92746.41;;;38.51;20.78
7986;BME280;4038;42.612;23.066;2022-08-19T13:00:28;92741.09;;;39.25;20.11
7986;BME280;4038;42.612;23.066;2022-08-19T13:02:53;92750.22;;;39.14;20.08
7986;BME280;4038;42.612;23.066;2022-08-19T13:05:22;92742.16;;;39.52;19.99
7986;BME280;4038;42.612;23.066;2022-08-19T13:07:49;92735.88;;;39.66;19.56
7986;BME280;4038;42.612;23.066;2022-08-19T13:10:18;92730.75;;;39.06;20.65
7986;BME280;4038;42.612;23.066;2022-08-19T13:12:46;92746.44;;;38.55;21.00
7986;BME280;4038;42.612;23.066;2022-08-19T13:15:13;92730.78;;;38.60;20.46
7986;BME280;4038;42.612;23.066;2022-08-19T13:17:39;92735.63;;;38.93;19.89
7986;BME280;4038;42.612;23.066;2022-08-19T13:20:07;92726.44;;;39.55;19.84
7986;BME280;4038;42.612;23.066;2022-08-19T13:22:33;92724.91;;;39.50;19.81
7986;BME280;4038;42.612;23.066;2022-08-19T13:25:01;92736.38;;;38.96;20.27